Time;durP1;ratioP1;P1;durP2;ratioP2;P2;SDS_P1;SDS_P2;PMS_P1;PMS_P2;Temp;Humidity;BMP_temperature;BMP_pressure;BME280_temperature;BME280_humidity;BME280_pressure;Samples;Min_cycle;Max_cycle;Signal;HPM_P1;HPM_P2
2022/10/26 00:00:11;;;;;;;9.83;8.93;;;11.60;99.90;;;;;;5022758;28;20233;-83
2022/10/26 00:02:41;;;;;;;8.60;7.90;;;11.60;99.90;;;;;;5018219;28;20222;-83
2022/10/26 00:05:08;;;;;;;11.03;10.03;;;11.60;99.90;;;;;;5024598;28;20328;-83
2022/10/26 00:07:35;;;;;;;9.97;9.17;;;11.60;99.90;;;;;;5023360;28;20204;-83
2022/10/26 00:10:02;;;;;;;12.87;11.97;;;11.60;99.90;;;;;;5024085;28;20225;-83
2022/10/26 00:12:29;;;;;;;12.13;11.23;;;11.60;99.90;;;;;;5024429;28;20499;-84
2022/10/26 00:14:57;;;;;;;9.73;9.03;;;11.60;99.90;;;;;;5022891;28;20242;-83
2022/10/26 00:17:24;;;;;;;9.93;9.13;;;11.60;99.90;;;;;;5022590;28;20204;-84
2022/10/26 00:19:51;;;;;;;11.93;11.03;;;11.60;99.90;;;;;;5023403;28;20229;-84
2022/10/26 00:22:18;;;;;;;10.90;10.10;;;11.60;99.90;;;;;;5023051;28;20546;-83
2022/10/26 00:24:45;;;;;;;8.80;8.00;;;11.60;99.90;;;;;;5022100;28;20225;-83
2022/10/26 00:27:12;;;;;;;9.37;8.60;;;11.70;99.90;;;;;;5022814;28;20648;-84
2022/10/26 00:29:39;;;;;;;8.17;7.37;;;11.70;99.90;;;;;;5022812;28;20204;-83
2022/10/26 00:32:07;;;;;;;6.70;6.10;;;11.70;99.90;;;;;;5023098;28;20194;-83
2022/10/26 00:34:34;;;;;;;12.43;11.50;;;11.70;99.90;;;;;;5023452;28;20190;-84
2022/10/26 00:37:01;;;;;;;13.00;12.10;;;11.70;99.90;;;;;;5018404;28;20213;-84
2022/10/26 00:39:28;;;;;;;12.90;11.97;;;11.70;99.90;;;;;;5018682;28;20190;-83
2022/10/26 00:41:55;;;;;;;12.30;11.40;;;11.70;99.90;;;;;;5022605;28;20702;-83
2022/10/26 00:45:00;;;;;;;11.97;11.07;;;11.70;99.90;;;;;;5023760;28;20210;-83
2022/10/26 00:47:38;;;;;;;13.57;12.17;;;11.80;99.90;;;;;;5013473;28;20204;-83
2022/10/26 00:50:09;;;;;;;12.37;11.57;;;11.80;99.90;;;;;;5022057;28;20234;-84
2022/10/26 00:52:37;;;;;;;8.77;8.17;;;11.80;99.90;;;;;;5021658;28;20199;-83
2022/10/26 00:55:05;;;;;;;11.70;11.00;;;11.80;99.90;;;;;;5022696;28;20205;-83
2022/10/26 00:57:32;;;;;;;11.60;10.70;;;11.90;99.90;;;;;;5023958;28;20583;-84
2022/10/26 01:00:00;;;;;;;11.73;10.93;;;11.90;99.90;;;;;;5022471;28;20692;-83
2022/10/26 01:02:27;;;;;;;12.00;11.10;;;11.90;99.90;;;;;;5020275;28;20212;-83
2022/10/26 01:04:56;;;;;;;11.13;10.43;;;11.90;99.90;;;;;;5023896;28;20238;-84
2022/10/26 01:07:25;;;;;;;12.43;11.53;;;12.00;99.90;;;;;;5022125;28;20195;-83
2022/10/26 01:09:53;;;;;;;12.27;11.47;;;12.00;99.90;;;;;;5022049;28;20227;-84
2022/10/26 01:12:19;;;;;;;12.70;11.80;;;11.90;99.90;;;;;;5022872;28;20208;-83
2022/10/26 01:14:47;;;;;;;13.20;12.20;;;12.00;99.90;;;;;;5023383;28;20197;-83
2022/10/26 01:17:29;;;;;;;12.53;11.60;;;11.90;99.90;;;;;;5024054;28;20557;-83
2022/10/26 01:20:41;;;;;;;12.33;11.53;;;12.00;99.90;;;;;;5019078;28;20215;-83
2022/10/26 01:23:19;;;;;;;13.47;12.33;;;12.00;99.90;;;;;;5020613;28;20207;-83
2022/10/26 01:26:38;;;;;;;12.10;11.30;;;12.00;99.90;;;;;;5022026;28;20221;-83
2022/10/26 01:29:25;;;;;;;12.83;11.93;;;12.00;99.90;;;;;;4960093;28;20208;-83
2022/10/26 01:31:58;;;;;;;12.30;11.50;;;11.90;99.90;;;;;;4946461;29;20224;-83
2022/10/26 01:34:34;;;;;;;12.83;11.83;;;11.90;99.90;;;;;;4991523;28;20206;-83
2022/10/26 01:37:08;;;;;;;12.77;11.87;;;11.90;99.90;;;;;;5022305;28;20674;-84
2022/10/26 01:39:39;;;;;;;12.93;11.93;;;11.90;99.90;;;;;;5021225;28;20198;-83
2022/10/26 01:42:09;;;;;;;11.93;11.13;;;11.90;99.90;;;;;;5022483;28;20212;-83
2022/10/26 01:44:41;;;;;;;12.47;11.57;;;11.90;99.90;;;;;;5021984;28;20214;-83
2022/10/26 01:47:11;;;;;;;11.97;11.17;;;11.90;99.90;;;;;;5021996;28;20282;-83
2022/10/26 01:49:42;;;;;;;12.70;11.80;;;11.90;99.90;;;;;;5022970;28;20199;-84
2022/10/26 01:52:10;;;;;;;13.03;12.13;;;11.90;99.90;;;;;;5021858;28;20586;-83
2022/10/26 01:54:37;;;;;;;12.53;11.73;;;11.90;99.90;;;;;;5022239;28;20558;-84
2022/10/26 01:57:06;;;;;;;13.63;12.73;;;11.90;99.90;;;;;;5021521;28;20209;-83
2022/10/26 01:59:46;;;;;;;13.77;12.70;;;11.90;99.90;;;;;;5020860;28;20222;-83
2022/10/26 02:02:45;;;;;;;12.97;12.07;;;11.90;99.90;;;;;;5022796;28;20690;-83
2022/10/26 02:05:29;;;;;;;13.10;12.20;;;11.80;99.90;;;;;;5020927;28;20331;-83
2022/10/26 02:08:07;;;;;;;13.83;12.83;;;11.80;99.90;;;;;;5019467;28;20196;-83
2022/10/26 02:10:46;;;;;;;15.10;13.77;;;11.80;99.90;;;;;;5015459;28;20220;-83
2022/10/26 02:13:18;;;;;;;14.10;12.90;;;11.80;99.90;;;;;;5025443;28;20203;-83
2022/10/26 02:15:52;;;;;;;13.03;12.17;;;11.80;99.90;;;;;;5022781;28;20208;-83
2022/10/26 02:18:30;;;;;;;13.13;12.13;;;11.80;99.90;;;;;;5022759;28;20209;-83
2022/10/26 02:21:03;;;;;;;14.33;13.10;;;11.70;99.90;;;;;;5023855;28;20233;-83
2022/10/26 02:23:32;;;;;;;13.40;12.60;;;11.80;99.90;;;;;;5021963;28;20207;-82
2022/10/26 02:26:01;;;;;;;13.90;13.00;;;11.70;99.90;;;;;;5020940;28;20226;-82
2022/10/26 02:28:32;;;;;;;13.80;12.80;;;11.80;99.90;;;;;;5012491;28;20253;-82
2022/10/26 02:31:01;;;;;;;13.17;12.27;;;11.80;99.90;;;;;;5020329;28;20221;-82
2022/10/26 02:33:33;;;;;;;14.07;13.00;;;11.80;99.90;;;;;;5014003;28;20254;-81
2022/10/26 02:36:02;;;;;;;14.10;13.20;;;11.80;99.90;;;;;;5020252;28;20227;-82
2022/10/26 02:38:32;;;;;;;13.80;12.80;;;11.80;99.90;;;;;;5019029;28;20206;-82
2022/10/26 02:41:01;;;;;;;13.93;12.90;;;11.80;99.90;;;;;;5019784;28;20232;-82
2022/10/26 02:43:29;;;;;;;10.97;10.07;;;11.80;99.90;;;;;;5012900;28;20195;-81
2022/10/26 02:46:01;;;;;;;5.60;5.00;;;11.80;99.90;;;;;;5016932;28;20240;-82
2022/10/26 02:48:29;;;;;;;6.80;4.93;;;11.70;99.90;;;;;;5007892;28;20200;-81
2022/10/26 02:51:03;;;;;;;7.67;5.70;;;11.70;99.90;;;;;;5035753;28;20249;-82
2022/10/26 02:53:34;;;;;;;5.90;5.30;;;11.70;99.90;;;;;;5028813;28;20203;-85
2022/10/26 02:56:07;;;;;;;5.90;4.60;;;11.80;99.90;;;;;;5022083;28;20215;-85
2022/10/26 02:58:40;;;;;;;6.03;5.43;;;11.80;99.90;;;;;;5014959;28;20196;-85
2022/10/26 03:01:07;;;;;;;6.53;4.80;;;11.80;99.90;;;;;;5019648;28;20227;-85
2022/10/26 03:03:36;;;;;;;6.90;5.30;;;11.80;99.90;;;;;;5020802;28;20191;-84
2022/10/26 03:06:03;;;;;;;5.83;5.10;;;11.80;99.90;;;;;;5023315;28;20700;-85
2022/10/26 03:08:29;;;;;;;8.80;5.10;;;11.90;99.90;;;;;;5023943;28;20213;-85
2022/10/26 03:10:56;;;;;;;7.47;5.70;;;11.90;99.90;;;;;;5022349;28;20216;-86
2022/10/26 03:13:23;;;;;;;6.50;5.50;;;11.90;99.90;;;;;;5022822;28;20226;-84
2022/10/26 03:15:50;;;;;;;7.90;5.87;;;11.90;99.90;;;;;;5016356;28;20223;-86
2022/10/26 03:18:17;;;;;;;8.70;5.87;;;11.90;99.90;;;;;;5016206;28;20437;-85
2022/10/26 03:20:46;;;;;;;6.03;5.43;;;11.90;99.90;;;;;;5021799;28;20720;-85
2022/10/26 03:23:12;;;;;;;6.00;5.40;;;11.90;99.90;;;;;;5019160;28;20203;-84
2022/10/26 03:25:39;;;;;;;8.93;5.80;;;11.90;99.90;;;;;;5019770;28;20298;-85
2022/10/26 03:28:07;;;;;;;5.47;4.90;;;11.90;99.90;;;;;;5018919;28;20239;-83
2022/10/26 03:30:33;;;;;;;6.47;5.20;;;11.90;99.90;;;;;;5020506;28;20245;-84
2022/10/26 03:33:00;;;;;;;5.83;5.27;;;11.90;99.90;;;;;;5021630;28;20231;-83
2022/10/26 03:35:27;;;;;;;5.80;5.00;;;11.80;99.90;;;;;;5019919;28;20203;-84
2022/10/26 03:37:56;;;;;;;6.13;5.03;;;11.80;99.90;;;;;;5030149;28;20208;-82
2022/10/26 03:40:23;;;;;;;6.47;4.90;;;11.90;99.90;;;;;;5027563;28;20214;-82
2022/10/26 03:42:50;;;;;;;6.67;5.27;;;11.80;99.90;;;;;;5028952;28;20205;-83
2022/10/26 03:45:17;;;;;;;6.17;5.03;;;11.80;99.90;;;;;;5027739;28;20263;-84
2022/10/26 03:47:45;;;;;;;5.83;5.10;;;11.90;99.90;;;;;;5029718;28;20189;-85
2022/10/26 03:50:14;;;;;;;5.27;4.73;;;11.80;99.90;;;;;;5026769;28;20292;-84
2022/10/26 03:52:41;;;;;;;7.77;6.03;;;11.90;99.90;;;;;;5027783;28;20208;-84
2022/10/26 03:55:10;;;;;;;7.00;5.97;;;11.90;99.90;;;;;;5028372;28;20795;-85
2022/10/26 03:57:41;;;;;;;7.90;5.50;;;11.90;99.90;;;;;;5028617;28;20199;-84
2022/10/26 04:00:09;;;;;;;6.83;5.70;;;11.90;99.90;;;;;;5025445;28;20222;-84
2022/10/26 04:02:39;;;;;;;6.27;5.43;;;12.00;99.90;;;;;;5029307;28;20207;-84
2022/10/26 04:05:08;;;;;;;7.40;6.23;;;11.90;99.90;;;;;;5028400;28;20255;-84
2022/10/26 04:07:35;;;;;;;6.10;5.50;;;12.00;99.90;;;;;;5028445;28;20189;-85
2022/10/26 04:10:02;;;;;;;6.33;5.47;;;11.90;99.90;;;;;;5027578;28;20223;-85
2022/10/26 04:12:30;;;;;;;7.30;5.40;;;11.90;99.90;;;;;;5027764;28;20218;-85
2022/10/26 04:14:57;;;;;;;6.10;5.50;;;11.90;99.90;;;;;;5027820;28;20765;-84
2022/10/26 04:17:24;;;;;;;5.77;5.03;;;11.90;99.90;;;;;;5028474;28;20206;-84
2022/10/26 04:19:51;;;;;;;5.50;5.10;;;11.90;99.90;;;;;;5029656;28;20196;-84
2022/10/26 04:22:18;;;;;;;5.73;5.13;;;11.90;99.90;;;;;;5035279;28;20198;-84
2022/10/26 04:24:45;;;;;;;5.77;5.00;;;11.90;99.90;;;;;;5038029;28;20218;-84
2022/10/26 04:27:12;;;;;;;7.67;5.20;;;11.80;99.90;;;;;;5038443;28;20246;-84
2022/10/26 04:29:40;;;;;;;5.63;4.87;;;11.90;99.90;;;;;;5037463;28;20665;-84
2022/10/26 04:32:07;;;;;;;5.30;4.80;;;11.80;99.90;;;;;;5039490;28;20298;-84
2022/10/26 04:34:34;;;;;;;5.40;4.93;;;11.80;99.90;;;;;;5039832;28;20195;-83
2022/10/26 04:37:01;;;;;;;6.47;5.83;;;11.80;99.90;;;;;;5039107;28;20184;-84
2022/10/26 04:39:28;;;;;;;5.30;4.80;;;11.80;99.90;;;;;;5039223;28;20183;-83
2022/10/26 04:41:55;;;;;;;6.33;5.20;;;11.80;99.90;;;;;;5034661;28;20211;-82
2022/10/26 04:44:22;;;;;;;5.73;5.20;;;11.80;99.90;;;;;;5054915;28;20219;-83
2022/10/26 04:46:50;;;;;;;5.73;5.03;;;11.80;99.90;;;;;;5038647;28;20217;-84
2022/10/26 04:49:17;;;;;;;5.63;5.13;;;11.80;99.90;;;;;;5038576;28;20185;-83
2022/10/26 04:51:44;;;;;;;4.90;4.50;;;11.70;99.90;;;;;;5037765;28;20212;-84
2022/10/26 04:54:11;;;;;;;5.33;4.83;;;11.80;99.90;;;;;;5038287;28;20193;-82
2022/10/26 04:56:38;;;;;;;5.17;4.77;;;11.80;99.90;;;;;;5039088;28;20183;-84
2022/10/26 04:59:05;;;;;;;5.23;4.70;;;11.70;99.90;;;;;;5039129;28;20189;-84
2022/10/26 05:01:32;;;;;;;5.77;4.97;;;11.70;99.90;;;;;;5038533;28;20228;-84
2022/10/26 05:04:00;;;;;;;4.90;4.50;;;11.70;99.90;;;;;;5039029;28;20243;-84
2022/10/26 05:06:29;;;;;;;5.43;4.60;;;11.70;99.90;;;;;;5029379;28;20227;-82
2022/10/26 05:08:56;;;;;;;5.37;4.87;;;11.60;99.90;;;;;;5033248;28;20181;-83
2022/10/26 05:11:22;;;;;;;5.53;5.03;;;11.60;99.90;;;;;;5037527;28;20211;-83
2022/10/26 05:13:49;;;;;;;5.23;4.83;;;11.60;99.90;;;;;;5038856;28;20223;-81
2022/10/26 05:16:16;;;;;;;5.93;5.33;;;11.60;99.90;;;;;;5038836;28;20184;-84
2022/10/26 05:18:43;;;;;;;5.50;5.00;;;11.60;99.90;;;;;;5040953;28;20218;-83
2022/10/26 05:21:18;;;;;;;4.97;4.57;;;11.60;99.90;;;;;;5036910;28;20207;-83
2022/10/26 05:23:47;;;;;;;5.20;4.73;;;11.70;99.90;;;;;;5046839;28;20204;-83
2022/10/26 05:26:14;;;;;;;5.37;4.87;;;11.80;99.90;;;;;;5043299;28;20218;-83
2022/10/26 05:28:41;;;;;;;5.30;4.80;;;11.80;99.90;;;;;;5043321;28;20218;-83
2022/10/26 05:31:08;;;;;;;6.53;5.43;;;11.90;99.90;;;;;;5043216;28;20222;-83
2022/10/26 05:33:35;;;;;;;5.30;4.80;;;12.00;99.90;;;;;;5042071;28;20268;-83
2022/10/26 05:36:02;;;;;;;5.70;5.10;;;12.10;99.90;;;;;;5041829;28;20252;-83
2022/10/26 05:38:30;;;;;;;6.17;5.03;;;12.10;99.90;;;;;;5040733;28;20176;-84
2022/10/26 05:40:57;;;;;;;5.47;4.97;;;12.20;99.90;;;;;;5036797;28;20230;-84
2022/10/26 05:43:26;;;;;;;5.13;4.47;;;12.30;99.90;;;;;;5040870;28;20226;-84
2022/10/26 05:45:54;;;;;;;5.50;4.93;;;12.40;99.90;;;;;;5039289;28;20275;-83
2022/10/26 05:48:21;;;;;;;5.20;4.70;;;12.40;99.90;;;;;;5037580;28;20179;-83
2022/10/26 05:50:48;;;;;;;6.17;4.73;;;12.50;99.90;;;;;;5071208;22;20220;-84
2022/10/26 05:53:15;;;;;;;5.30;4.83;;;12.50;99.90;;;;;;5056930;28;20186;-85
2022/10/26 05:55:45;;;;;;;6.03;5.10;;;12.50;99.90;;;;;;5050956;28;20226;-84
2022/10/26 05:58:14;;;;;;;5.70;5.20;;;12.40;99.90;;;;;;5057068;28;20199;-84
2022/10/26 06:00:54;;;;;;;5.47;4.97;;;12.30;99.90;;;;;;5057064;28;20215;-84
2022/10/26 06:03:34;;;;;;;5.30;4.90;;;12.30;99.90;;;;;;5052568;28;20182;-83
2022/10/26 06:06:01;;;;;;;7.20;5.17;;;12.20;99.90;;;;;;5043146;28;20206;-84
2022/10/26 06:08:29;;;;;;;5.13;4.70;;;12.10;99.90;;;;;;5050170;28;20184;-84
2022/10/26 06:10:59;;;;;;;5.73;5.13;;;12.10;99.90;;;;;;5046294;28;20728;-84
2022/10/26 06:13:26;;;;;;;5.73;5.20;;;12.20;99.90;;;;;;5045568;28;20204;-83
2022/10/26 06:16:21;;;;;;;4.73;4.33;;;12.20;99.90;;;;;;5047045;28;20217;-83
2022/10/26 06:18:57;;;;;;;5.20;4.70;;;12.20;99.90;;;;;;5041265;28;20558;-83
2022/10/26 06:21:35;;;;;;;6.53;5.30;;;12.20;99.90;;;;;;5047943;28;20209;-84
2022/10/26 06:24:08;;;;;;;4.63;4.23;;;12.30;99.90;;;;;;5032860;28;20198;-81
2022/10/26 06:26:42;;;;;;;6.53;5.00;;;12.30;99.90;;;;;;5029832;28;20576;-82
2022/10/26 06:29:19;;;;;;;4.53;4.13;;;12.50;99.90;;;;;;5028914;28;20545;-80
2022/10/26 06:31:47;;;;;;;6.23;5.00;;;12.60;99.90;;;;;;5030377;28;20225;-79
2022/10/26 06:34:21;;;;;;;5.53;5.03;;;12.60;99.90;;;;;;5029647;28;20202;-80
2022/10/26 06:36:49;;;;;;;5.10;4.60;;;12.70;99.90;;;;;;5030193;28;20191;-81
2022/10/26 06:39:17;;;;;;;4.83;4.40;;;12.80;99.90;;;;;;5028666;28;20205;-81
2022/10/26 06:41:46;;;;;;;6.67;4.57;;;12.90;99.90;;;;;;5030105;28;20211;-82
2022/10/26 06:44:23;;;;;;;4.83;4.33;;;13.00;99.90;;;;;;5027419;28;20275;-83
2022/10/26 06:46:57;;;;;;;4.73;4.17;;;13.00;99.90;;;;;;5027597;28;20317;-83
2022/10/26 06:49:30;;;;;;;5.30;4.50;;;13.10;99.90;;;;;;5040202;28;20207;-82
2022/10/26 06:52:01;;;;;;;4.73;4.30;;;13.20;99.90;;;;;;5028555;28;20235;-85
2022/10/26 06:54:40;;;;;;;4.97;4.00;;;13.20;99.90;;;;;;5031881;28;20207;-83
2022/10/26 06:57:14;;;;;;;6.77;4.23;;;13.30;99.90;;;;;;5033000;28;20207;-84
2022/10/26 06:59:48;;;;;;;4.90;4.50;;;13.40;99.90;;;;;;5030965;28;20671;-84
2022/10/26 07:02:15;;;;;;;4.67;4.27;;;13.40;99.90;;;;;;5036995;28;20204;-84
2022/10/26 07:04:41;;;;;;;5.57;4.20;;;13.40;99.90;;;;;;5037634;28;20214;-85
2022/10/26 07:07:09;;;;;;;9.93;9.33;;;13.50;99.90;;;;;;5037202;28;20224;-83
2022/10/26 07:09:36;;;;;;;4.73;4.30;;;13.50;99.90;;;;;;5037687;28;20197;-83
2022/10/26 07:12:03;;;;;;;4.87;4.47;;;13.60;99.90;;;;;;5038547;28;20203;-84
2022/10/26 07:14:31;;;;;;;5.10;4.70;;;13.60;99.90;;;;;;5037120;28;20200;-83
2022/10/26 07:16:58;;;;;;;8.27;7.67;;;13.70;99.90;;;;;;5037601;28;20211;-84
2022/10/26 07:19:25;;;;;;;5.47;4.30;;;13.80;99.90;;;;;;5037573;28;20207;-82
2022/10/26 07:21:55;;;;;;;4.57;4.17;;;13.90;99.90;;;;;;5037655;28;20222;-83
2022/10/26 07:24:22;;;;;;;4.80;4.40;;;14.10;99.90;;;;;;5037011;28;20209;-84
2022/10/26 07:26:49;;;;;;;8.13;7.53;;;14.20;99.90;;;;;;5036779;28;20216;-84
2022/10/26 07:29:17;;;;;;;4.80;4.30;;;14.40;99.90;;;;;;5039428;28;20209;-84
2022/10/26 07:31:45;;;;;;;4.37;3.97;;;14.60;99.90;;;;;;5032876;28;20237;-84
2022/10/26 07:34:12;;;;;;;10.57;9.77;;;14.80;99.90;;;;;;5027152;28;20217;-84
2022/10/26 07:36:39;;;;;;;4.33;4.00;;;15.10;99.90;;;;;;5022015;28;20205;-84
2022/10/26 07:39:08;;;;;;;6.83;6.33;;;15.30;99.90;;;;;;5023012;28;20239;-84
2022/10/26 07:41:36;;;;;;;7.27;6.70;;;15.40;99.90;;;;;;5031602;28;20218;-84
2022/10/26 07:44:03;;;;;;;5.73;5.23;;;15.40;99.90;;;;;;5033736;28;20198;-82
2022/10/26 07:46:31;;;;;;;4.83;4.03;;;15.50;99.90;;;;;;5038726;28;20699;-83
2022/10/26 07:52:54;;;;;;;7.50;7.00;;;15.50;99.90;;;;;;5029442;28;20210;-83
2022/10/26 07:55:38;;;;;;;4.30;3.90;;;15.60;99.90;;;;;;5032974;28;20201;-82
2022/10/26 08:01:49;;;;;;;6.47;3.90;;;15.50;99.90;;;;;;4922273;29;20236;-83
2022/10/26 08:04:49;;;;;;;;;;;;;;;;;;;;;
2022/10/26 08:07:34;;;;;;;4.33;3.93;;;15.70;99.90;;;;;;5032839;28;20222;-82
2022/10/26 08:10:33;;;;;;;5.07;4.57;;;15.70;99.90;;;;;;5053164;28;20256;-83
2022/10/26 08:13:49;;;;;;;10.70;10.00;;;15.70;99.90;;;;;;5039342;28;20707;-82
2022/10/26 08:16:46;;;;;;;5.50;5.00;;;15.70;99.90;;;;;;5037173;28;20194;-82
2022/10/26 08:26:58;;;;;;;5.60;4.67;;;15.70;99.90;;;;;;5039335;28;20210;-84
2022/10/26 08:33:09;;;;;;;5.63;4.10;;;15.80;99.90;;;;;;5036493;28;20202;-81
2022/10/26 08:39:02;;;;;;;4.27;3.87;;;15.80;99.90;;;;;;5036850;28;20237;-83
2022/10/26 08:41:58;;;;;;;3.83;3.53;;;15.80;99.90;;;;;;5034504;28;20219;-82
2022/10/26 08:44:37;;;;;;;9.53;8.87;;;15.90;99.90;;;;;;5034023;28;20231;-83
2022/10/26 08:47:41;;;;;;;3.77;3.40;;;15.90;99.90;;;;;;5037439;28;20227;-82
2022/10/26 08:50:55;;;;;;;4.97;3.57;;;16.00;99.90;;;;;;5036557;28;20220;-83
2022/10/26 08:53:47;;;;;;;3.87;3.57;;;16.20;99.90;;;;;;5035347;28;20203;-83
2022/10/26 08:56:40;;;;;;;3.60;3.30;;;16.40;99.90;;;;;;5052808;28;20212;-83
2022/10/26 08:59:35;;;;;;;9.63;8.90;;;16.70;99.90;;;;;;5037285;28;20211;-85
2022/10/26 09:02:17;;;;;;;4.50;3.90;;;17.50;99.90;;;;;;5037202;28;20745;-83
2022/10/26 09:04:50;;;;;;;7.90;7.20;;;17.90;99.90;;;;;;5036406;28;20215;-83
2022/10/26 09:07:54;;;;;;;7.30;6.80;;;18.10;99.90;;;;;;5036646;28;20211;-84
2022/10/26 09:10:43;;;;;;;10.20;5.33;;;18.20;99.90;;;;;;5045723;28;20227;-85
2022/10/26 09:13:48;;;;;;;;;;;;;;;;;;;;;
2022/10/26 09:16:37;;;;;;;6.00;4.13;;;18.20;99.90;;;;;;5034687;28;20200;-85
2022/10/26 09:19:54;;;;;;;4.40;3.70;;;18.00;99.90;;;;;;5035097;28;20200;-84
2022/10/26 09:22:33;;;;;;;4.93;3.70;;;17.90;99.90;;;;;;5035292;28;20205;-85
2022/10/26 09:25:31;;;;;;;11.80;10.53;;;17.80;99.90;;;;;;5031980;28;20227;-85
2022/10/26 09:28:16;;;;;;;13.20;9.77;;;17.70;99.90;;;;;;5033132;28;20233;-85
2022/10/26 09:30:51;;;;;;;7.87;6.00;;;17.70;99.90;;;;;;5032727;28;20228;-85
2022/10/26 09:33:35;;;;;;;6.00;4.93;;;17.70;99.90;;;;;;5034532;28;20190;-85
2022/10/26 09:36:16;;;;;;;7.60;4.40;;;17.60;99.90;;;;;;5033640;28;20200;-84
2022/10/26 09:39:12;;;;;;;7.80;4.00;;;17.40;99.90;;;;;;5034178;28;20246;-84
2022/10/26 09:41:53;;;;;;;5.60;3.90;;;17.30;99.90;;;;;;5023716;28;20266;-84
2022/10/26 09:44:29;;;;;;;4.00;3.70;;;17.20;99.90;;;;;;5035065;28;20208;-85
2022/10/26 09:47:03;;;;;;;4.60;3.93;;;17.00;99.90;;;;;;5035879;28;20205;-85
2022/10/26 09:49:50;;;;;;;5.43;3.70;;;17.00;99.90;;;;;;5031322;28;20203;-84
2022/10/26 09:52:21;;;;;;;4.50;3.50;;;17.00;99.90;;;;;;5040103;28;20192;-85
2022/10/26 09:54:55;;;;;;;5.20;4.80;;;17.00;99.90;;;;;;5033041;28;20287;-85
2022/10/26 09:57:24;;;;;;;3.90;3.60;;;17.00;99.90;;;;;;5020097;28;20209;-85
2022/10/26 10:00:10;;;;;;;;;;;;;;;;;;;;;
2022/10/26 10:02:47;;;;;;;4.70;3.70;;;17.30;99.90;;;;;;5024965;28;20184;-85
2022/10/26 10:08:35;;;;;;;4.03;3.40;;;17.60;99.90;;;;;;5034587;28;20227;-85
2022/10/26 10:11:23;;;;;;;6.33;3.70;;;17.80;99.90;;;;;;5025629;28;20267;-84
2022/10/26 10:13:50;;;;;;;5.87;3.87;;;18.00;99.90;;;;;;5029649;28;20204;-85
2022/10/26 10:16:40;;;;;;;5.23;3.90;;;18.20;99.90;;;;;;5035759;28;20228;-85
2022/10/26 10:19:40;;;;;;;7.37;3.53;;;18.40;99.90;;;;;;5025905;28;20214;-85
2022/10/26 10:22:18;;;;;;;8.97;8.00;;;18.60;99.90;;;;;;5029107;28;20209;-82
2022/10/26 10:24:54;;;;;;;11.67;10.20;;;18.70;99.90;;;;;;5029242;28;20201;-81
2022/10/26 10:27:22;;;;;;;12.60;11.30;;;18.80;99.90;;;;;;5028421;28;20215;-82
2022/10/26 10:29:50;;;;;;;15.23;12.73;;;18.90;99.90;;;;;;5029613;28;20642;-81
2022/10/26 10:32:20;;;;;;;11.53;10.63;;;18.90;99.90;;;;;;5027508;28;20212;-81
2022/10/26 10:34:49;;;;;;;11.97;11.10;;;18.90;99.90;;;;;;5033765;28;20190;-82
2022/10/26 10:37:25;;;;;;;10.03;9.03;;;19.00;99.90;;;;;;5032995;28;20190;-82
2022/10/26 10:39:56;;;;;;;6.50;4.20;;;19.00;99.90;;;;;;5032237;28;20211;-82
2022/10/26 10:42:26;;;;;;;5.07;4.10;;;19.00;99.90;;;;;;5032302;28;20206;-81
2022/10/26 10:44:55;;;;;;;3.93;3.53;;;19.00;99.90;;;;;;5030080;28;20222;-81
2022/10/26 10:47:25;;;;;;;11.20;10.40;;;19.10;99.90;;;;;;5028604;28;20238;-82
2022/10/26 10:50:00;;;;;;;12.10;10.90;;;19.30;99.90;;;;;;5028997;28;20795;-81
2022/10/26 10:52:29;;;;;;;10.63;9.83;;;19.50;99.90;;;;;;5021954;28;20208;-81
2022/10/26 10:55:19;;;;;;;5.30;3.77;;;19.80;99.90;;;;;;5028127;28;20192;-82
2022/10/26 10:58:03;;;;;;;5.13;3.70;;;19.90;99.90;;;;;;5025954;28;20207;-82
2022/10/26 11:00:36;;;;;;;4.60;4.07;;;20.00;99.90;;;;;;5032078;28;20601;-81
2022/10/26 11:03:21;;;;;;;4.90;3.70;;;20.10;99.90;;;;;;5028735;28;20564;-81
2022/10/26 11:06:01;;;;;;;8.90;7.80;;;20.10;99.90;;;;;;5028378;28;20565;-82
2022/10/26 11:08:33;;;;;;;12.07;10.50;;;20.20;99.90;;;;;;5029121;28;20625;-81
2022/10/26 11:11:05;;;;;;;9.57;8.97;;;20.20;99.90;;;;;;5027343;28;20215;-81
2022/10/26 11:13:38;;;;;;;10.83;10.03;;;20.20;99.90;;;;;;5029623;28;20290;-81
2022/10/26 11:16:11;;;;;;;6.17;5.03;;;20.30;99.90;;;;;;5028766;28;20199;-82
2022/10/26 11:18:44;;;;;;;6.27;4.70;;;20.30;99.90;;;;;;5027872;28;20289;-81
2022/10/26 11:21:22;;;;;;;4.30;3.90;;;20.50;99.90;;;;;;5029296;28;20629;-81
2022/10/26 11:23:54;;;;;;;5.77;3.90;;;20.50;99.90;;;;;;5029364;28;20203;-81
2022/10/26 11:26:27;;;;;;;7.27;4.03;;;20.60;99.90;;;;;;5028850;28;20214;-81
2022/10/26 11:28:59;;;;;;;8.77;4.97;;;20.50;99.90;;;;;;5027339;28;20353;-81
2022/10/26 11:31:33;;;;;;;6.07;4.57;;;20.50;99.90;;;;;;5031683;28;20215;-81
2022/10/26 11:34:19;;;;;;;11.20;10.30;;;20.60;99.90;;;;;;5031315;28;20199;-81
2022/10/26 11:36:52;;;;;;;5.53;5.03;;;20.70;99.90;;;;;;5031413;28;20203;-81
2022/10/26 11:39:28;;;;;;;5.73;5.10;;;20.70;99.90;;;;;;5032889;28;20249;-81
2022/10/26 11:42:00;;;;;;;9.33;5.27;;;20.70;99.90;;;;;;5036856;28;20207;-81
2022/10/26 11:44:35;;;;;;;7.80;4.97;;;20.80;99.90;;;;;;5025537;28;20245;-80
2022/10/26 11:47:07;;;;;;;9.47;8.70;;;20.90;99.90;;;;;;5033928;28;20191;-82
2022/10/26 11:49:42;;;;;;;6.07;5.40;;;20.90;99.90;;;;;;5029622;28;20303;-81
2022/10/26 11:52:16;;;;;;;7.83;7.13;;;21.00;99.90;;;;;;5029294;28;20215;-81
2022/10/26 11:54:47;;;;;;;8.70;7.90;;;21.00;99.90;;;;;;5027530;28;20196;-81
2022/10/26 11:57:15;;;;;;;12.13;10.33;;;21.10;99.90;;;;;;5027008;28;20200;-81
2022/10/26 11:59:47;;;;;;;10.73;9.90;;;21.20;99.90;;;;;;5034239;28;20195;-80
2022/10/26 12:02:16;;;;;;;11.03;10.13;;;21.20;99.90;;;;;;5034550;28;20203;-82
2022/10/26 12:04:48;;;;;;;10.93;10.03;;;21.20;99.90;;;;;;5034496;28;20772;-81
2022/10/26 12:07:22;;;;;;;11.30;10.40;;;21.10;99.90;;;;;;5026047;28;20208;-82
2022/10/26 12:09:49;;;;;;;11.30;10.30;;;21.10;99.90;;;;;;5029813;28;20199;-82
2022/10/26 12:12:23;;;;;;;10.27;9.47;;;21.00;99.90;;;;;;5031031;28;20253;-83
2022/10/26 12:14:59;;;;;;;10.67;9.70;;;21.00;99.90;;;;;;5040500;28;20203;-83
2022/10/26 12:17:32;;;;;;;10.50;9.70;;;21.10;99.90;;;;;;5028024;28;20672;-82
2022/10/26 12:20:12;;;;;;;10.90;9.77;;;21.30;99.90;;;;;;5027561;28;20274;-83
2022/10/26 12:22:40;;;;;;;9.70;8.90;;;21.40;99.90;;;;;;5024643;28;20268;-82
2022/10/26 12:25:21;;;;;;;9.67;8.93;;;21.50;99.90;;;;;;5033005;28;20199;-81
2022/10/26 12:27:55;;;;;;;8.37;7.13;;;21.60;99.90;;;;;;5033302;28;20259;-82
2022/10/26 12:30:30;;;;;;;8.53;7.83;;;21.70;99.90;;;;;;5033949;28;20222;-81
2022/10/26 12:32:59;;;;;;;9.57;5.57;;;21.70;99.90;;;;;;5033252;28;20199;-80
2022/10/26 12:35:38;;;;;;;9.83;7.67;;;21.60;99.90;;;;;;5036342;28;20196;-78
2022/10/26 12:38:42;;;;;;;8.17;7.30;;;21.60;99.90;;;;;;5032724;28;20231;-79
2022/10/26 12:41:19;;;;;;;5.10;4.63;;;21.50;99.90;;;;;;5027656;28;20230;-80
2022/10/26 12:43:50;;;;;;;5.57;5.03;;;21.50;99.90;;;;;;5020905;28;20669;-79
2022/10/26 12:46:39;;;;;;;5.77;4.57;;;21.60;99.90;;;;;;5031691;28;20191;-80
2022/10/26 12:49:44;;;;;;;6.80;4.70;;;21.80;99.90;;;;;;5026744;28;20200;-82
2022/10/26 12:52:30;;;;;;;6.33;4.90;;;22.00;99.90;;;;;;5030689;28;20631;-80
2022/10/26 12:55:17;;;;;;;8.53;7.63;;;22.20;99.90;;;;;;5031110;28;20619;-80
2022/10/26 12:57:54;;;;;;;10.87;10.00;;;22.30;99.90;;;;;;5025662;28;20206;-79
2022/10/26 13:00:24;;;;;;;11.83;10.73;;;22.30;99.90;;;;;;5027268;28;20220;-80
2022/10/26 13:03:07;;;;;;;11.13;10.30;;;22.30;99.90;;;;;;5029601;28;20246;-79
2022/10/26 13:06:00;;;;;;;7.23;6.53;;;22.20;99.90;;;;;;5021716;28;20203;-82
2022/10/26 13:08:29;;;;;;;10.20;9.30;;;22.20;99.90;;;;;;5030467;28;20300;-80
2022/10/26 13:11:04;;;;;;;6.77;5.90;;;22.10;99.90;;;;;;5028571;28;20222;-80
2022/10/26 13:13:33;;;;;;;6.23;5.30;;;21.90;99.90;;;;;;5025311;28;20549;-79
2022/10/26 13:16:02;;;;;;;8.23;5.40;;;21.80;99.90;;;;;;5028382;28;20204;-81
2022/10/26 13:18:30;;;;;;;8.03;6.13;;;21.70;99.90;;;;;;5029646;28;20193;-81
2022/10/26 13:21:04;;;;;;;7.60;6.07;;;21.50;99.90;;;;;;5026141;28;20216;-80
2022/10/26 13:24:17;;;;;;;6.13;5.53;;;21.30;99.90;;;;;;5026896;28;20214;-81
2022/10/26 13:27:41;;;;;;;8.37;5.97;;;21.20;99.90;;;;;;5025623;28;20210;-82
2022/10/26 13:30:50;;;;;;;6.93;5.57;;;21.10;99.90;;;;;;5031963;28;20220;-81
2022/10/26 13:33:37;;;;;;;8.23;5.93;;;21.00;99.90;;;;;;5034328;28;20298;-81
2022/10/26 13:36:17;;;;;;;6.83;4.00;;;20.90;99.90;;;;;;5033062;28;20256;-81
2022/10/26 13:38:46;;;;;;;5.73;3.80;;;20.90;99.90;;;;;;5030269;28;20200;-82
2022/10/26 13:41:29;;;;;;;5.80;3.90;;;20.80;99.90;;;;;;5030594;28;20215;-81
2022/10/26 13:44:00;;;;;;;5.83;4.80;;;20.70;99.90;;;;;;5037231;28;20293;-84
2022/10/26 13:46:29;;;;;;;4.27;3.63;;;20.70;99.90;;;;;;5032077;28;20199;-83